createdAt,value
2019-01-25T00:01:15.615Z,21.90
2019-01-25T00:05:20.318Z,22.27
2019-01-25T00:09:25.010Z,21.73
2019-01-25T00:13:29.710Z,23.53
2019-01-25T00:17:34.396Z,24.10
2019-01-25T00:21:39.086Z,22.57
2019-01-25T00:25:43.786Z,19.83
2019-01-25T00:29:48.483Z,19.30
2019-01-25T00:33:53.182Z,21.17
2019-01-25T00:37:57.870Z,20.03
2019-01-25T00:42:02.566Z,19.00
2019-01-25T00:46:07.260Z,19.73
2019-01-25T00:50:19.889Z,19.37
2019-01-25T00:54:24.588Z,20.73
2019-01-25T00:58:29.272Z,20.47
2019-01-25T01:02:33.970Z,19.23
2019-01-25T01:06:38.668Z,20.27
2019-01-25T01:10:43.372Z,19.03
2019-01-25T01:14:48.055Z,20.13
2019-01-25T01:18:52.748Z,21.37
2019-01-25T01:22:57.451Z,21.97
2019-01-25T01:27:02.153Z,21.93
2019-01-25T01:31:06.851Z,20.53
2019-01-25T01:35:11.540Z,21.03
2019-01-25T01:39:16.239Z,22.03
2019-01-25T01:43:20.938Z,21.30
2019-01-25T01:47:25.633Z,22.30
2019-01-25T01:51:30.330Z,22.93
2019-01-25T01:55:35.022Z,22.93
2019-01-25T01:59:39.724Z,23.33
2019-01-25T02:03:44.419Z,22.40
2019-01-25T02:07:49.120Z,24.63
2019-01-25T02:11:53.820Z,21.47
2019-01-25T02:15:58.509Z,19.67
2019-01-25T02:20:04.282Z,20.67
2019-01-25T02:24:08.986Z,21.80
2019-01-25T02:28:13.680Z,21.80
2019-01-25T02:32:18.560Z,20.17
2019-01-25T02:36:23.260Z,20.00
2019-01-25T02:40:27.954Z,20.70
2019-01-25T02:44:32.651Z,20.63
2019-01-25T02:48:37.344Z,19.93
2019-01-25T02:52:42.046Z,20.23
2019-01-25T02:56:46.732Z,19.47
2019-01-25T03:00:51.430Z,20.07
2019-01-25T03:04:56.129Z,21.83
2019-01-25T03:09:00.821Z,21.13
2019-01-25T03:13:06.580Z,20.30
2019-01-25T03:17:11.279Z,22.10
2019-01-25T03:21:15.977Z,20.33
2019-01-25T03:25:22.815Z,22.93
2019-01-25T03:29:27.510Z,20.87
2019-01-25T03:33:32.238Z,20.23
2019-01-25T03:37:36.896Z,21.07
2019-01-25T03:41:41.592Z,20.53
2019-01-25T03:45:46.298Z,19.67
2019-01-25T03:49:51.002Z,19.43
2019-01-25T03:53:55.690Z,21.03
2019-01-25T03:58:00.392Z,21.43
2019-01-25T04:02:05.871Z,22.97
2019-01-25T04:06:10.574Z,22.20
2019-01-25T04:10:23.716Z,21.77
2019-01-25T04:14:28.397Z,23.07
2019-01-25T04:18:34.066Z,21.80
2019-01-25T04:22:38.766Z,21.10
2019-01-25T04:26:43.461Z,20.10
2019-01-25T04:30:48.162Z,20.47
2019-01-25T04:34:52.854Z,21.27
2019-01-25T04:38:57.553Z,21.20
2019-01-25T04:43:02.262Z,22.53
2019-01-25T04:47:06.954Z,20.07
2019-01-25T04:51:11.644Z,22.90
2019-01-25T04:55:18.779Z,21.03
2019-01-25T04:59:26.572Z,20.13
2019-01-25T05:03:31.445Z,21.87
2019-01-25T05:07:36.147Z,19.87
2019-01-25T05:11:40.838Z,23.23
2019-01-25T05:15:45.540Z,22.33
2019-01-25T05:19:50.233Z,21.63
2019-01-25T05:23:54.932Z,20.97
2019-01-25T05:28:14.093Z,20.00
2019-01-25T05:32:18.763Z,24.13
2019-01-25T05:36:23.461Z,22.23
2019-01-25T05:40:28.152Z,21.63
2019-01-25T05:44:32.856Z,21.73
2019-01-25T05:48:37.568Z,24.10
2019-01-25T05:52:43.298Z,23.53
2019-01-25T05:56:48.007Z,20.57
2019-01-25T06:00:52.692Z,17.67
2019-01-25T06:04:57.398Z,18.80
2019-01-25T06:09:02.097Z,17.80
2019-01-25T06:13:07.870Z,15.93
2019-01-25T06:17:12.599Z,15.57
2019-01-25T06:21:17.302Z,16.40
2019-01-25T06:25:22.014Z,18.03
2019-01-25T06:29:28.981Z,17.30
2019-01-25T06:33:33.667Z,17.33
2019-01-25T06:37:38.373Z,17.40
2019-01-25T06:41:44.192Z,17.33
2019-01-25T06:45:50.670Z,19.50
2019-01-25T06:49:55.365Z,17.73
2019-01-25T06:54:00.057Z,19.87
2019-01-25T06:58:12.725Z,18.53
2019-01-25T07:02:17.423Z,23.90
2019-01-25T07:06:22.116Z,23.43
2019-01-25T07:10:26.828Z,20.73
2019-01-25T07:14:31.505Z,18.97
2019-01-25T07:18:36.206Z,17.13
2019-01-25T07:22:40.911Z,16.57
2019-01-25T07:26:45.616Z,14.60
2019-01-25T07:30:50.334Z,17.03
2019-01-25T07:34:55.014Z,16.63
2019-01-25T07:38:59.716Z,16.97
2019-01-25T07:43:04.413Z,17.43
2019-01-25T07:47:09.115Z,18.10
2019-01-25T07:51:13.833Z,16.70
2019-01-25T07:55:18.533Z,17.20
2019-01-25T07:59:23.248Z,19.23
2019-01-25T08:03:27.909Z,16.03
2019-01-25T08:07:32.625Z,17.67
2019-01-25T08:11:37.312Z,15.83
2019-01-25T08:15:42.014Z,16.83
2019-01-25T08:19:46.765Z,20.17
2019-01-25T08:23:51.405Z,20.07
2019-01-25T08:27:56.111Z,19.53
2019-01-25T08:32:00.844Z,19.33
2019-01-25T08:36:05.563Z,19.80
2019-01-25T08:40:14.788Z,21.10
2019-01-25T08:44:19.482Z,20.87
2019-01-25T08:48:25.251Z,21.10
2019-01-25T08:52:29.956Z,20.80
2019-01-25T08:56:34.823Z,20.77
2019-01-25T09:00:39.622Z,22.60
2019-01-25T09:04:44.309Z,22.87
2019-01-25T09:08:49.002Z,23.33
2019-01-25T09:12:53.683Z,23.23
2019-01-25T09:16:58.375Z,22.07
2019-01-25T09:21:03.068Z,21.97
2019-01-25T09:25:08.894Z,21.73
2019-01-25T09:29:14.653Z,23.13
2019-01-25T09:33:19.335Z,23.30
2019-01-25T09:37:24.034Z,23.70
2019-01-25T09:41:28.733Z,24.17
2019-01-25T09:45:33.419Z,23.60
2019-01-25T09:49:38.116Z,25.33
2019-01-25T09:53:42.793Z,26.20
2019-01-25T09:57:47.733Z,25.07
2019-01-25T10:01:52.422Z,24.80
2019-01-25T10:05:57.116Z,25.40
2019-01-25T10:10:01.796Z,25.67
2019-01-25T10:14:06.491Z,25.80
2019-01-25T10:18:11.186Z,28.00
2019-01-25T10:22:15.880Z,26.53
2019-01-25T10:26:20.572Z,25.43
2019-01-25T10:30:26.901Z,27.67
2019-01-25T10:34:31.601Z,26.63
2019-01-25T10:38:36.307Z,26.43
2019-01-25T10:42:45.638Z,27.53
2019-01-25T10:46:47.394Z,25.03
2019-01-25T10:50:52.090Z,27.03
2019-01-25T10:54:56.775Z,28.20
2019-01-25T10:59:01.473Z,26.80
2019-01-25T11:03:06.164Z,27.30
2019-01-25T11:07:10.882Z,28.07
2019-01-25T11:11:15.569Z,28.30
2019-01-25T11:15:22.392Z,26.50
2019-01-25T11:19:28.054Z,28.50
2019-01-25T11:23:32.751Z,27.67
2019-01-25T11:27:37.441Z,27.23
2019-01-25T11:31:42.129Z,25.63
2019-01-25T11:35:46.823Z,27.10
2019-01-25T11:39:51.519Z,27.93
2019-01-25T11:43:56.217Z,25.93
2019-01-25T11:48:00.913Z,24.43
2019-01-25T11:52:05.603Z,25.67
2019-01-25T11:56:10.291Z,25.70
2019-01-25T12:00:23.271Z,29.40
2019-01-25T12:04:27.964Z,29.63
2019-01-25T12:08:32.663Z,31.83
2019-01-25T12:12:37.370Z,32.53
2019-01-25T12:16:42.048Z,33.47
2019-01-25T12:20:46.807Z,31.63
2019-01-25T12:24:51.453Z,33.67
2019-01-25T12:28:56.151Z,30.20
2019-01-25T12:33:00.838Z,32.53
2019-01-25T12:37:05.525Z,30.07
2019-01-25T12:41:10.221Z,32.00
2019-01-25T12:45:24.318Z,31.83
2019-01-25T12:49:29.014Z,31.67
2019-01-25T12:53:34.086Z,30.90
2019-01-25T12:57:38.766Z,28.97
2019-01-25T13:01:43.466Z,19.60
2019-01-25T13:05:48.233Z,14.63
2019-01-25T13:09:52.922Z,14.00
2019-01-25T13:13:57.881Z,16.70
2019-01-25T13:18:02.563Z,15.63
2019-01-25T13:22:07.263Z,16.33
2019-01-25T13:26:11.955Z,12.90
2019-01-25T13:30:28.820Z,13.57
2019-01-25T13:34:33.523Z,14.20
2019-01-25T13:38:38.193Z,13.90
2019-01-25T13:42:42.888Z,13.43
2019-01-25T13:46:47.588Z,15.57
2019-01-25T13:50:52.606Z,18.73
2019-01-25T13:54:57.297Z,22.00
2019-01-25T13:59:01.994Z,23.87
2019-01-25T14:03:06.691Z,20.57
2019-01-25T14:07:11.389Z,19.70
2019-01-25T14:11:16.087Z,17.53
2019-01-25T14:15:20.768Z,18.50
2019-01-25T14:19:25.527Z,19.90
2019-01-25T14:23:30.158Z,20.43
2019-01-25T14:27:34.852Z,19.17
2019-01-25T14:31:39.539Z,18.87
2019-01-25T14:35:44.228Z,18.30
2019-01-25T14:39:48.919Z,18.70
2019-01-25T14:43:54.696Z,17.63
2019-01-25T14:48:00.503Z,17.70
2019-01-25T14:52:05.737Z,30.57
2019-01-25T14:56:10.438Z,28.87
2019-01-25T15:00:15.760Z,29.73
2019-01-25T15:04:20.453Z,30.63
2019-01-25T15:08:25.141Z,29.13
2019-01-25T15:12:29.841Z,29.53
2019-01-25T15:16:34.518Z,27.67
2019-01-25T15:20:39.208Z,27.80
2019-01-25T15:24:43.927Z,27.00
2019-01-25T15:28:49.476Z,28.67
2019-01-25T15:32:54.179Z,30.60
2019-01-25T15:36:58.873Z,29.93
2019-01-25T15:41:03.564Z,29.40
2019-01-25T15:45:11.196Z,30.30
2019-01-25T15:49:15.902Z,30.53
2019-01-25T15:53:20.595Z,29.80
2019-01-25T15:57:25.288Z,31.00
2019-01-25T16:01:29.971Z,32.47
2019-01-25T16:05:34.662Z,30.87
2019-01-25T16:09:39.357Z,29.13
2019-01-25T16:13:45.922Z,30.33
2019-01-25T16:17:50.614Z,28.53
2019-01-25T16:21:55.313Z,30.43
2019-01-25T16:26:00.011Z,28.53
2019-01-25T16:30:13.828Z,28.20
2019-01-25T16:34:18.525Z,26.97
2019-01-25T16:38:23.221Z,28.13
2019-01-25T16:42:27.899Z,27.40
2019-01-25T16:46:32.599Z,24.63
2019-01-25T16:50:37.292Z,26.27
2019-01-25T16:54:41.989Z,23.63
2019-01-25T16:58:46.676Z,24.03
2019-01-25T17:02:51.360Z,21.23
2019-01-25T17:06:56.053Z,21.63
2019-01-25T17:11:00.745Z,20.53
2019-01-25T17:15:08.987Z,16.33
2019-01-25T17:19:13.674Z,14.97
2019-01-25T17:23:18.364Z,16.10
2019-01-25T17:27:23.056Z,15.00
2019-01-25T17:31:27.749Z,12.77
2019-01-25T17:35:32.786Z,11.80
2019-01-25T17:39:37.468Z,12.37
2019-01-25T17:43:42.161Z,14.17
2019-01-25T17:47:46.852Z,14.40
2019-01-25T17:51:51.555Z,14.23
2019-01-25T17:55:56.231Z,14.70
2019-01-25T18:00:01.983Z,14.30
2019-01-25T18:04:06.674Z,14.57
2019-01-25T18:08:11.367Z,14.77
2019-01-25T18:12:16.123Z,15.27
2019-01-25T18:16:20.823Z,15.57
2019-01-25T18:20:25.513Z,16.97
2019-01-25T18:24:30.200Z,18.13
2019-01-25T18:28:39.209Z,15.27
2019-01-25T18:32:43.904Z,15.27
2019-01-25T18:36:48.595Z,15.30
2019-01-25T18:40:53.289Z,15.60
2019-01-25T18:44:57.973Z,13.10
2019-01-25T18:49:02.707Z,19.13
2019-01-25T18:53:07.397Z,15.57
2019-01-25T18:57:12.096Z,19.57
2019-01-25T19:01:16.798Z,15.53
2019-01-25T19:05:21.481Z,14.67
2019-01-25T19:09:26.176Z,17.77
2019-01-25T19:13:30.873Z,18.43
2019-01-25T19:17:35.565Z,15.73
2019-01-25T19:21:41.218Z,17.33
2019-01-25T19:25:45.906Z,16.47
2019-01-25T19:29:50.595Z,16.83
2019-01-25T19:33:55.289Z,18.70
2019-01-25T19:37:59.980Z,19.03
2019-01-25T19:42:04.667Z,19.93
2019-01-25T19:46:09.355Z,19.57
2019-01-25T19:50:16.754Z,22.93
2019-01-25T19:54:21.443Z,22.57
2019-01-25T19:58:27.145Z,19.73
2019-01-25T20:02:31.915Z,19.90
2019-01-25T20:06:36.611Z,20.53
2019-01-25T20:10:41.302Z,21.87
2019-01-25T20:14:45.993Z,20.53
2019-01-25T20:18:50.681Z,20.50
2019-01-25T20:22:55.364Z,20.27
2019-01-25T20:27:00.060Z,19.80
2019-01-25T20:31:04.760Z,17.37
2019-01-25T20:35:12.402Z,21.70
2019-01-25T20:39:17.094Z,18.63
2019-01-25T20:43:21.782Z,17.60
2019-01-25T20:47:26.475Z,18.17
2019-01-25T20:51:31.167Z,18.83
2019-01-25T20:55:35.865Z,16.77
2019-01-25T20:59:40.548Z,17.27
2019-01-25T21:03:45.236Z,16.20
2019-01-25T21:07:49.929Z,15.03
2019-01-25T21:11:54.626Z,15.17
2019-01-25T21:15:59.315Z,15.57
2019-01-25T21:20:06.901Z,15.50
2019-01-25T21:24:11.666Z,12.93
2019-01-25T21:28:16.360Z,12.73
2019-01-25T21:32:21.040Z,12.53
2019-01-25T21:36:25.722Z,13.20
2019-01-25T21:40:32.154Z,12.00
2019-01-25T21:44:36.844Z,12.00
2019-01-25T21:48:41.545Z,11.50
2019-01-25T21:52:46.228Z,13.07
2019-01-25T21:56:50.916Z,12.87
2019-01-25T22:00:55.610Z,13.10
2019-01-25T22:05:00.296Z,12.10
2019-01-25T22:09:06.736Z,10.63
2019-01-25T22:13:11.435Z,11.50
2019-01-25T22:17:16.289Z,10.73
2019-01-25T22:21:20.980Z,11.53
2019-01-25T22:25:25.669Z,9.90
2019-01-25T22:29:30.351Z,7.93
2019-01-25T22:33:35.035Z,8.20
2019-01-25T22:37:39.711Z,7.47
2019-01-25T22:41:44.403Z,7.73
2019-01-25T22:45:49.090Z,8.57
2019-01-25T22:49:53.763Z,7.97
2019-01-25T22:53:58.582Z,6.43
2019-01-25T22:58:03.205Z,5.90
2019-01-25T23:02:07.887Z,6.27
2019-01-25T23:06:35.212Z,5.90
2019-01-25T23:10:39.891Z,5.50
2019-01-25T23:14:44.569Z,5.03
2019-01-25T23:18:49.233Z,5.47
2019-01-25T23:22:53.920Z,10.03
2019-01-25T23:26:58.612Z,5.43
2019-01-25T23:31:04.268Z,6.17
2019-01-25T23:35:08.947Z,5.57
2019-01-25T23:39:13.624Z,5.10
2019-01-25T23:43:18.323Z,5.10
2019-01-25T23:47:22.998Z,5.00
2019-01-25T23:51:27.678Z,4.93
2019-01-25T23:55:32.374Z,6.20
2019-01-25T23:59:38.015Z,5.90
